Kidlington, United Kingdom
Current Conditions -  °F | °C
As of 10:20 PM on Monday 24 Nov 2014 (Local Time) from EGTK Reporting Station
Clear Clear  
Wind Chill: -1°   Ceiling: Unl
Heat Index: -1°   Visibility: 4mi
Dew Point: -1°   Wind: 0mph
Humidity: 100%   Direction: NA
Pressure: 30.33"   Gusts: NA
Location:  51.82°N, 1.29°W
Report Text: EGTK 242220Z 00000KT 6000 NSC M01/M01 Q1027
Loading
Personal Weather Stations






























Interactive Weather Map New forecast layout! Learn more

10-Day Weather Forecast

Advertisements
Track Severe Weather on mobile